createdAt,value
2022-11-14T00:01:34.519Z,6.88
2022-11-14T00:04:06.638Z,6.83
2022-11-14T00:06:38.468Z,6.82
2022-11-14T00:09:10.555Z,6.78
2022-11-14T00:11:42.337Z,6.68
2022-11-14T00:14:14.247Z,6.59
2022-11-14T00:16:45.839Z,6.55
2022-11-14T00:19:17.579Z,6.47
2022-11-14T00:21:49.277Z,6.41
2022-11-14T00:24:21.029Z,6.39
2022-11-14T00:26:52.666Z,6.38
2022-11-14T00:29:24.256Z,6.39
2022-11-14T00:31:55.934Z,6.41
2022-11-14T00:34:27.601Z,6.45
2022-11-14T00:36:59.721Z,6.45
2022-11-14T00:39:31.468Z,6.44
2022-11-14T00:42:03.103Z,6.43
2022-11-14T00:44:35.024Z,6.42
2022-11-14T00:47:06.936Z,6.43
2022-11-14T00:49:38.534Z,6.42
2022-11-14T00:52:10.259Z,6.39
2022-11-14T00:54:41.904Z,6.34
2022-11-14T00:57:13.863Z,6.31
2022-11-14T00:59:45.647Z,6.29
2022-11-14T01:02:17.325Z,6.28
2022-11-14T01:04:48.924Z,6.24
2022-11-14T01:07:20.815Z,6.23
2022-11-14T01:09:52.576Z,6.22
2022-11-14T01:12:24.202Z,6.11
2022-11-14T01:14:56.235Z,6.07
2022-11-14T01:17:28.668Z,6.02
2022-11-14T01:20:00.420Z,6.03
2022-11-14T01:22:33.493Z,6.02
2022-11-14T01:25:05.581Z,5.99
2022-11-14T01:27:37.335Z,5.98
2022-11-14T01:33:12.888Z,5.96
2022-11-14T01:35:44.417Z,5.92
2022-11-14T01:38:17.435Z,5.89
2022-11-14T01:40:49.209Z,5.84
2022-11-14T01:43:32.546Z,5.80
2022-11-14T01:46:07.543Z,5.80
2022-11-14T01:48:44.225Z,5.79
2022-11-14T01:51:24.909Z,5.80
2022-11-14T01:53:59.632Z,5.82
2022-11-14T01:56:37.522Z,5.81
2022-11-14T01:59:11.212Z,5.83
2022-11-14T02:01:44.684Z,5.85
2022-11-14T02:04:19.674Z,5.84
2022-11-14T02:06:53.141Z,5.85
2022-11-14T02:09:25.138Z,5.80
2022-11-14T02:11:58.991Z,5.79
2022-11-14T02:14:32.020Z,5.86
2022-11-14T02:17:27.835Z,5.89
2022-11-14T02:20:03.618Z,5.84
2022-11-14T02:22:39.421Z,5.81
2022-11-14T02:25:16.228Z,5.76
2022-11-14T02:27:48.085Z,5.72
2022-11-14T02:30:23.472Z,5.68
2022-11-14T02:33:10.345Z,5.70
2022-11-14T02:35:42.821Z,5.70
2022-11-14T02:38:14.414Z,5.71
2022-11-14T02:40:46.232Z,5.74
2022-11-14T02:43:17.905Z,5.72
2022-11-14T02:45:49.533Z,5.68
2022-11-14T02:48:21.203Z,5.69
2022-11-14T02:50:52.815Z,5.72
2022-11-14T02:53:24.298Z,5.73
2022-11-14T02:55:55.842Z,5.70
2022-11-14T02:58:27.556Z,5.69
2022-11-14T03:01:19.645Z,5.67
2022-11-14T03:03:51.027Z,5.56
2022-11-14T03:06:22.697Z,5.53
2022-11-14T03:08:54.198Z,5.45
2022-11-14T03:11:25.725Z,5.38
2022-11-14T03:13:57.325Z,5.37
2022-11-14T03:16:28.870Z,5.37
2022-11-14T03:19:00.401Z,5.37
2022-11-14T03:21:31.938Z,5.35
2022-11-14T03:24:03.599Z,5.34
2022-11-14T03:26:35.112Z,5.32
2022-11-14T03:29:07.257Z,5.30
2022-11-14T03:31:38.774Z,5.24
2022-11-14T03:34:11.244Z,5.21
2022-11-14T03:36:42.877Z,5.25
2022-11-14T03:39:14.410Z,5.28
2022-11-14T03:41:45.942Z,5.31
2022-11-14T03:44:17.454Z,5.34
2022-11-14T03:46:49.098Z,5.33
2022-11-14T03:49:20.885Z,5.36
2022-11-14T03:51:52.446Z,5.39
2022-11-14T03:54:23.962Z,5.42
2022-11-14T03:56:55.550Z,5.41
2022-11-14T03:59:27.075Z,5.39
2022-11-14T04:01:58.593Z,5.38
2022-11-14T04:04:30.263Z,5.36
2022-11-14T04:07:01.921Z,5.34
2022-11-14T04:09:33.590Z,5.34
2022-11-14T04:12:05.384Z,5.34
2022-11-14T04:14:36.931Z,5.34
2022-11-14T04:17:08.456Z,5.29
2022-11-14T04:19:40.209Z,5.26
2022-11-14T04:22:11.870Z,5.24
2022-11-14T04:24:43.376Z,5.24
2022-11-14T04:27:15.458Z,5.25
2022-11-14T04:29:47.210Z,5.26
2022-11-14T04:32:18.785Z,5.21
2022-11-14T04:34:50.787Z,5.15
2022-11-14T04:37:22.422Z,5.09
2022-11-14T04:39:58.663Z,5.06
2022-11-14T04:42:30.276Z,5.07
2022-11-14T04:45:01.960Z,5.08
2022-11-14T04:47:33.689Z,5.10
2022-11-14T04:50:06.448Z,5.09
2022-11-14T04:52:38.226Z,5.09
2022-11-14T04:55:11.314Z,5.03
2022-11-14T04:57:42.802Z,4.97
2022-11-14T05:00:17.024Z,4.90
2022-11-14T05:02:48.510Z,4.90
2022-11-14T05:05:20.143Z,4.90
2022-11-14T05:07:51.701Z,4.92
2022-11-14T05:10:23.227Z,4.89
2022-11-14T05:12:57.313Z,4.89
2022-11-14T05:15:29.050Z,4.89
2022-11-14T05:18:01.076Z,4.93
2022-11-14T05:20:33.007Z,4.98
2022-11-14T05:23:04.577Z,5.05
2022-11-14T05:25:36.079Z,5.09
2022-11-14T05:28:07.732Z,5.08
2022-11-14T05:30:39.318Z,5.09
2022-11-14T05:33:10.855Z,5.11
2022-11-14T05:35:42.517Z,5.08
2022-11-14T05:38:14.131Z,5.05
2022-11-14T05:40:45.667Z,5.04
2022-11-14T05:43:17.182Z,5.02
2022-11-14T05:45:48.819Z,5.03
2022-11-14T05:48:20.380Z,5.04
2022-11-14T05:50:54.845Z,5.08
2022-11-14T05:53:26.922Z,5.12
2022-11-14T05:56:01.087Z,5.15
2022-11-14T05:58:33.781Z,5.18
2022-11-14T06:01:07.140Z,5.21
2022-11-14T06:03:40.469Z,5.23
2022-11-14T06:06:15.409Z,5.23
2022-11-14T06:08:48.590Z,5.20
2022-11-14T06:11:22.500Z,5.22
2022-11-14T06:13:54.062Z,5.15
2022-11-14T06:16:25.812Z,5.10
2022-11-14T06:18:57.880Z,5.09
2022-11-14T06:21:29.453Z,5.12
2022-11-14T06:24:00.955Z,5.10
2022-11-14T06:26:33.290Z,5.12
2022-11-14T06:29:04.875Z,5.14
2022-11-14T06:31:36.409Z,5.17
2022-11-14T06:34:08.907Z,5.19
2022-11-14T06:36:40.561Z,5.21
2022-11-14T06:39:12.114Z,5.20
2022-11-14T06:41:43.741Z,5.18
2022-11-14T06:44:16.087Z,5.21
2022-11-14T06:46:47.621Z,5.20
2022-11-14T06:49:19.126Z,5.12
2022-11-14T06:51:51.501Z,5.10
2022-11-14T06:54:23.181Z,5.13
2022-11-14T06:56:54.811Z,5.14
2022-11-14T06:59:26.378Z,5.12
2022-11-14T07:01:58.092Z,5.14
2022-11-14T07:04:29.918Z,5.15
2022-11-14T07:07:01.609Z,5.15
2022-11-14T07:09:33.244Z,5.19
2022-11-14T07:12:05.266Z,5.23
2022-11-14T07:14:36.749Z,5.27
2022-11-14T07:17:08.478Z,5.32
2022-11-14T07:19:40.049Z,5.34
2022-11-14T07:22:11.613Z,5.39
2022-11-14T07:24:43.245Z,5.42
2022-11-14T07:27:14.990Z,5.41
2022-11-14T07:29:46.771Z,5.41
2022-11-14T07:32:18.369Z,5.45
2022-11-14T07:34:49.921Z,5.49
2022-11-14T07:37:21.681Z,5.51
2022-11-14T07:39:53.226Z,5.54
2022-11-14T07:42:24.786Z,5.58
2022-11-14T07:44:56.358Z,5.61
2022-11-14T07:47:29.272Z,5.62
2022-11-14T07:50:00.967Z,5.62
2022-11-14T07:52:33.612Z,5.67
2022-11-14T07:55:05.697Z,5.64
2022-11-14T07:57:41.874Z,5.60
2022-11-14T08:00:18.042Z,5.62
2022-11-14T08:02:49.652Z,5.67
2022-11-14T08:05:21.354Z,5.71
2022-11-14T08:07:54.755Z,5.68
2022-11-14T08:10:29.751Z,5.70
2022-11-14T08:13:30.987Z,5.73
2022-11-14T08:16:01.137Z,5.63
2022-11-14T08:18:32.827Z,5.71
2022-11-14T08:21:08.110Z,5.77
2022-11-14T08:23:39.893Z,5.79
2022-11-14T08:26:11.507Z,5.81
2022-11-14T08:28:43.084Z,5.85
2022-11-14T08:31:14.738Z,5.86
2022-11-14T08:33:46.548Z,5.88
2022-11-14T08:36:18.468Z,5.85
2022-11-14T08:38:51.626Z,5.84
2022-11-14T08:41:23.622Z,5.84
2022-11-14T08:43:55.259Z,5.87
2022-11-14T08:46:26.834Z,5.85
2022-11-14T08:48:58.381Z,5.83
2022-11-14T08:51:29.913Z,5.83
2022-11-14T08:54:01.491Z,5.89
2022-11-14T08:56:33.237Z,5.98
2022-11-14T08:59:07.558Z,5.97
2022-11-14T09:01:39.094Z,6.00
2022-11-14T09:04:10.765Z,5.97
2022-11-14T09:06:42.453Z,5.92
2022-11-14T09:09:15.273Z,5.96
2022-11-14T09:11:46.761Z,6.02
2022-11-14T09:14:18.572Z,6.08
2022-11-14T09:16:51.104Z,6.14
2022-11-14T09:19:22.648Z,6.19
2022-11-14T09:21:54.239Z,6.23
2022-11-14T09:24:26.160Z,6.29
2022-11-14T09:26:57.924Z,6.32
2022-11-14T09:29:29.430Z,6.37
2022-11-14T09:32:00.972Z,6.38
2022-11-14T09:34:32.520Z,6.39
2022-11-14T09:37:04.164Z,6.37
2022-11-14T09:39:39.491Z,6.38
2022-11-14T09:42:24.255Z,6.35
2022-11-14T09:45:02.740Z,6.36
2022-11-14T09:47:42.510Z,6.43
2022-11-14T09:50:21.810Z,6.47
2022-11-14T09:52:59.399Z,6.49
2022-11-14T09:55:36.850Z,6.50
2022-11-14T09:58:16.596Z,6.59
2022-11-14T10:00:55.779Z,6.65
2022-11-14T10:03:42.810Z,6.67
2022-11-14T10:06:23.797Z,6.71
2022-11-14T10:09:07.852Z,6.83
2022-11-14T10:11:40.504Z,6.92
2022-11-14T10:14:42.637Z,6.97
2022-11-14T10:17:30.054Z,7.00
2022-11-14T10:20:13.255Z,6.98
2022-11-14T10:23:01.518Z,6.99
2022-11-14T10:25:44.163Z,7.00
2022-11-14T10:28:30.562Z,7.00
2022-11-14T10:31:08.480Z,7.02
2022-11-14T10:33:50.230Z,7.10
2022-11-14T10:36:35.217Z,7.13
2022-11-14T10:39:16.468Z,7.09
2022-11-14T10:42:03.160Z,7.13
2022-11-14T10:44:44.559Z,7.20
2022-11-14T10:47:22.456Z,7.29
2022-11-14T10:50:01.721Z,7.37
2022-11-14T10:52:43.682Z,7.46
2022-11-14T10:55:24.861Z,7.52
2022-11-14T10:58:14.720Z,7.52
2022-11-14T11:00:46.484Z,7.47
2022-11-14T11:03:18.266Z,7.37
2022-11-14T11:05:54.853Z,7.30
2022-11-14T11:08:44.733Z,7.30
2022-11-14T11:11:32.985Z,7.34
2022-11-14T11:14:04.718Z,7.38
2022-11-14T11:16:36.243Z,7.41
2022-11-14T11:19:26.355Z,7.41
2022-11-14T11:21:57.951Z,7.41
2022-11-14T11:24:35.557Z,7.41
2022-11-14T11:27:23.917Z,7.38
2022-11-14T11:30:20.016Z,7.43
2022-11-14T11:32:51.629Z,7.55
2022-11-14T11:35:23.648Z,7.68
2022-11-14T11:37:59.269Z,7.79
2022-11-14T11:40:31.929Z,7.89
2022-11-14T11:43:37.809Z,7.99
2022-11-14T11:46:04.455Z,8.12
2022-11-14T11:48:39.022Z,8.37
2022-11-14T11:51:17.680Z,8.76
2022-11-14T11:53:52.917Z,9.12
2022-11-14T11:56:31.650Z,9.44
2022-11-14T11:59:28.601Z,9.85
2022-11-14T12:02:00.719Z,10.26
2022-11-14T12:04:32.937Z,10.54
2022-11-14T12:07:10.854Z,10.93
2022-11-14T12:10:09.274Z,11.37
2022-11-14T12:13:02.220Z,11.87
2022-11-14T12:15:45.269Z,12.36
2022-11-14T12:18:38.178Z,12.78
2022-11-14T12:21:14.507Z,13.26
2022-11-14T12:24:13.198Z,13.70
2022-11-14T12:27:02.333Z,14.15
2022-11-14T12:29:49.755Z,14.55
2022-11-14T12:32:27.755Z,14.83
2022-11-14T12:35:00.984Z,14.99
2022-11-14T12:37:36.971Z,15.20
2022-11-14T12:40:21.465Z,15.42
2022-11-14T12:42:51.667Z,15.37
2022-11-14T12:45:54.126Z,15.01
2022-11-14T12:48:33.082Z,14.51
2022-11-14T12:51:06.925Z,14.13
2022-11-14T12:53:45.527Z,13.83
2022-11-14T12:56:42.974Z,13.51
2022-11-14T12:59:28.864Z,13.26
2022-11-14T13:02:24.101Z,13.04
2022-11-14T13:05:15.999Z,12.77
2022-11-14T13:08:01.701Z,12.50
2022-11-14T13:10:38.208Z,12.28
2022-11-14T13:13:29.433Z,12.07
2022-11-14T13:16:45.408Z,11.84
2022-11-14T13:19:40.446Z,11.60
2022-11-14T13:22:40.429Z,11.50
2022-11-14T13:25:24.173Z,11.41
2022-11-14T13:28:21.746Z,11.27
2022-11-14T13:31:19.287Z,11.12
2022-11-14T13:33:53.302Z,11.01
2022-11-14T13:36:36.019Z,10.92
2022-11-14T13:39:24.901Z,10.81
2022-11-14T13:42:29.721Z,10.69
2022-11-14T13:45:35.033Z,10.59
2022-11-14T13:48:35.304Z,10.45
2022-11-14T13:51:41.329Z,10.36
2022-11-14T13:54:03.614Z,10.23
2022-11-14T13:56:53.572Z,10.14
2022-11-14T14:00:04.028Z,10.05
2022-11-14T14:02:59.882Z,9.96
2022-11-14T14:05:49.582Z,9.91
2022-11-14T14:08:36.050Z,9.85
2022-11-14T14:11:28.087Z,9.78
2022-11-14T14:14:07.538Z,9.71
2022-11-14T14:16:46.508Z,9.62
2022-11-14T14:19:26.222Z,9.50
2022-11-14T14:22:06.805Z,9.44
2022-11-14T14:24:54.342Z,9.37
2022-11-14T14:27:35.955Z,9.27
2022-11-14T14:30:11.791Z,9.16
2022-11-14T14:32:43.874Z,9.04
2022-11-14T14:35:32.618Z,8.98
2022-11-14T14:38:13.869Z,8.89
2022-11-14T14:40:46.739Z,8.83
2022-11-14T14:43:30.119Z,8.74
2022-11-14T14:46:02.162Z,8.62
2022-11-14T14:48:37.120Z,8.53
2022-11-14T14:51:14.144Z,8.45
2022-11-14T14:53:54.535Z,8.37
2022-11-14T14:56:28.828Z,8.32
2022-11-14T14:59:16.160Z,8.21
2022-11-14T15:01:49.117Z,8.11
2022-11-14T15:04:24.590Z,8.02
2022-11-14T15:06:58.456Z,7.97
2022-11-14T15:09:31.523Z,7.91
2022-11-14T15:12:05.607Z,7.87
2022-11-14T15:14:40.004Z,7.82
2022-11-14T15:17:13.210Z,7.75
2022-11-14T15:19:47.650Z,7.67
2022-11-14T15:22:29.211Z,7.58
2022-11-14T15:25:21.371Z,7.49
2022-11-14T15:27:55.751Z,7.39
2022-11-14T15:30:31.792Z,7.36
2022-11-14T15:33:05.026Z,7.33
2022-11-14T15:35:38.544Z,7.29
2022-11-14T15:38:43.054Z,7.21
2022-11-14T15:41:22.850Z,7.14
2022-11-14T15:44:01.806Z,7.07
2022-11-14T15:46:42.193Z,7.02
2022-11-14T15:49:22.532Z,6.98
2022-11-14T15:51:56.901Z,6.94
2022-11-14T15:54:31.050Z,6.89
2022-11-14T15:57:07.666Z,6.85
2022-11-14T15:59:39.305Z,6.80
2022-11-14T16:02:17.560Z,6.76
2022-11-14T16:04:53.197Z,6.77
2022-11-14T16:07:25.156Z,6.75
2022-11-14T16:09:56.819Z,6.71
2022-11-14T16:12:28.511Z,6.67
2022-11-14T16:15:00.193Z,6.63
2022-11-14T16:17:38.433Z,6.57
2022-11-14T16:20:17.211Z,6.52
2022-11-14T16:22:50.050Z,6.50
2022-11-14T16:25:23.645Z,6.50
2022-11-14T16:27:55.541Z,6.49
2022-11-14T16:30:28.118Z,6.48
2022-11-14T16:32:59.758Z,6.46
2022-11-14T16:35:31.402Z,6.43
2022-11-14T16:38:03.154Z,6.44
2022-11-14T16:40:35.832Z,6.41
2022-11-14T16:43:07.395Z,6.39
2022-11-14T16:45:42.253Z,6.39
2022-11-14T16:48:13.985Z,6.36
2022-11-14T16:50:45.552Z,6.35
2022-11-14T16:53:17.088Z,6.35
2022-11-14T16:55:48.804Z,6.31
2022-11-14T16:58:20.322Z,6.30
2022-11-14T17:00:52.031Z,6.27
2022-11-14T17:03:23.710Z,6.26
2022-11-14T17:05:55.397Z,6.25
2022-11-14T17:08:27.011Z,6.25
2022-11-14T17:10:59.853Z,6.24
2022-11-14T17:13:33.119Z,6.24
2022-11-14T17:16:05.750Z,6.28
2022-11-14T17:18:39.043Z,6.29
2022-11-14T17:21:12.909Z,6.28
2022-11-14T17:23:45.882Z,6.20
2022-11-14T17:26:20.720Z,6.14
2022-11-14T17:28:52.586Z,6.16
2022-11-14T17:31:24.217Z,6.16
2022-11-14T17:33:58.212Z,6.16
2022-11-14T17:36:31.404Z,6.20
2022-11-14T17:39:02.909Z,6.23
2022-11-14T17:41:35.352Z,6.24
2022-11-14T17:44:09.696Z,6.19
2022-11-14T17:46:41.257Z,6.16
2022-11-14T17:49:12.851Z,6.15
2022-11-14T17:51:44.424Z,6.14
2022-11-14T17:54:15.977Z,6.11
2022-11-14T17:56:52.278Z,6.12
2022-11-14T17:59:26.290Z,6.12
2022-11-14T18:01:59.893Z,6.15
2022-11-14T18:04:32.215Z,6.21
2022-11-14T18:07:03.803Z,6.26
2022-11-14T18:09:35.431Z,6.33
2022-11-14T18:12:07.519Z,6.37
2022-11-14T18:14:39.135Z,6.40
2022-11-14T18:17:13.451Z,6.40
2022-11-14T18:19:45.186Z,6.39
2022-11-14T18:22:16.770Z,6.37
2022-11-14T18:24:48.291Z,6.36
2022-11-14T18:27:20.291Z,6.39
2022-11-14T18:29:52.136Z,6.38
2022-11-14T18:32:23.726Z,6.31
2022-11-14T18:34:55.363Z,6.26
2022-11-14T18:37:27.758Z,6.25
2022-11-14T18:40:00.337Z,6.23
2022-11-14T18:42:31.899Z,6.22
2022-11-14T18:45:04.056Z,6.22
2022-11-14T18:47:35.777Z,6.21
2022-11-14T18:50:09.067Z,6.18
2022-11-14T18:52:40.609Z,6.18
2022-11-14T18:55:12.431Z,6.19
2022-11-14T18:57:44.040Z,6.18
2022-11-14T19:00:18.888Z,6.12
2022-11-14T19:02:53.369Z,6.11
2022-11-14T19:05:25.021Z,6.08
2022-11-14T19:07:56.809Z,6.08
2022-11-14T19:10:28.497Z,6.07
2022-11-14T19:13:01.150Z,6.08
2022-11-14T19:15:33.737Z,6.06
2022-11-14T19:18:06.045Z,6.09
2022-11-14T19:20:37.778Z,6.11
2022-11-14T19:23:09.288Z,6.10
2022-11-14T19:25:40.849Z,6.09
2022-11-14T19:28:12.363Z,6.06
2022-11-14T19:30:43.943Z,6.06
2022-11-14T19:33:15.582Z,6.05
2022-11-14T19:35:47.200Z,6.06
2022-11-14T19:38:18.810Z,6.06
2022-11-14T19:40:51.948Z,6.05
2022-11-14T19:43:25.546Z,6.03
2022-11-14T19:46:01.313Z,6.04
2022-11-14T19:48:33.597Z,6.04
2022-11-14T19:51:07.466Z,6.07
2022-11-14T19:53:40.874Z,6.08
2022-11-14T19:56:14.103Z,6.12
2022-11-14T19:58:48.015Z,6.14
2022-11-14T20:01:22.488Z,6.16
2022-11-14T20:03:55.963Z,6.14
2022-11-14T20:06:29.159Z,6.06
2022-11-14T20:09:02.365Z,6.05
2022-11-14T20:11:34.356Z,5.99
2022-11-14T20:14:06.657Z,5.99
2022-11-14T20:16:39.514Z,5.99
2022-11-14T20:19:11.881Z,5.99
2022-11-14T20:21:44.077Z,5.98
2022-11-14T20:24:21.493Z,6.00
2022-11-14T20:26:53.285Z,6.01
2022-11-14T20:29:25.210Z,5.99
2022-11-14T20:31:57.126Z,5.99
2022-11-14T20:34:30.127Z,6.00
2022-11-14T20:37:11.106Z,6.00
2022-11-14T20:39:43.422Z,6.01
2022-11-14T20:42:15.088Z,6.05
2022-11-14T20:44:46.795Z,6.08
2022-11-14T20:47:18.506Z,6.11
2022-11-14T20:49:51.308Z,6.14
2022-11-14T20:52:23.101Z,6.14
2022-11-14T20:54:54.954Z,6.12
2022-11-14T20:57:26.671Z,6.11
2022-11-14T20:59:58.345Z,6.10
2022-11-14T21:02:30.067Z,6.08
2022-11-14T21:05:02.273Z,6.07
2022-11-14T21:07:33.856Z,6.08
2022-11-14T21:10:24.389Z,6.10
2022-11-14T21:13:09.821Z,6.10
2022-11-14T21:15:41.332Z,6.08
2022-11-14T21:18:13.020Z,6.09
2022-11-14T21:20:44.552Z,6.12
2022-11-14T21:23:16.365Z,6.18
2022-11-14T21:25:47.853Z,6.22
2022-11-14T21:28:19.346Z,6.26
2022-11-14T21:30:50.906Z,6.27
2022-11-14T21:33:22.467Z,6.22
2022-11-14T21:35:54.270Z,6.22
2022-11-14T21:38:25.830Z,6.22
2022-11-14T21:40:57.970Z,6.23
2022-11-14T21:43:30.947Z,6.26
2022-11-14T21:46:04.734Z,6.26
2022-11-14T21:48:41.124Z,6.24
2022-11-14T21:51:15.314Z,6.23
2022-11-14T21:53:48.639Z,6.20
2022-11-14T21:56:22.556Z,6.19
2022-11-14T21:59:12.836Z,6.19
2022-11-14T22:02:04.139Z,6.19
2022-11-14T22:04:36.365Z,6.16
2022-11-14T22:07:09.537Z,6.14
2022-11-14T22:09:45.324Z,6.12
2022-11-14T22:12:17.419Z,6.08
2022-11-14T22:14:48.935Z,6.02
2022-11-14T22:17:20.469Z,5.97
2022-11-14T22:19:51.970Z,5.95
2022-11-14T22:22:23.601Z,5.88
2022-11-14T22:24:55.098Z,5.77
2022-11-14T22:27:27.071Z,5.73
2022-11-14T22:29:58.643Z,5.66
2022-11-14T22:32:30.486Z,5.65
2022-11-14T22:35:02.016Z,5.69
2022-11-14T22:37:34.933Z,5.68
2022-11-14T22:40:08.246Z,5.71
2022-11-14T22:42:39.869Z,5.75
2022-11-14T22:45:12.713Z,5.78
2022-11-14T22:47:44.221Z,5.81
2022-11-14T22:50:15.975Z,5.86
2022-11-14T22:52:47.506Z,5.90
2022-11-14T22:55:19.064Z,5.91
2022-11-14T22:57:50.654Z,5.93
2022-11-14T23:00:23.110Z,5.91
2022-11-14T23:02:56.350Z,5.91
2022-11-14T23:05:27.866Z,5.94
2022-11-14T23:07:59.435Z,5.99
2022-11-14T23:10:31.079Z,6.04
2022-11-14T23:13:02.719Z,6.09
2022-11-14T23:15:34.396Z,6.11
2022-11-14T23:18:07.456Z,6.12
2022-11-14T23:20:39.027Z,6.06
2022-11-14T23:23:10.720Z,6.04
2022-11-14T23:25:42.276Z,6.05
2022-11-14T23:28:13.810Z,6.00
2022-11-14T23:30:45.365Z,5.97
2022-11-14T23:33:16.886Z,5.94
2022-11-14T23:35:48.486Z,5.94
2022-11-14T23:38:20.053Z,5.93
2022-11-14T23:40:55.756Z,5.91
2022-11-14T23:43:27.915Z,5.90
2022-11-14T23:45:59.889Z,5.88
2022-11-14T23:48:31.435Z,5.90
2022-11-14T23:51:03.003Z,5.94
2022-11-14T23:53:34.708Z,5.95
2022-11-14T23:56:06.914Z,5.97
2022-11-14T23:58:38.429Z,5.97
